View Sortable Currents For Network
ASOSAWOSCoCoRaHSCOOPDCPISUSM
SchoolNetOtherSCANMy FavoritesBy StateRWIS
RWIS SurfaceRWIS TrafficRWIS SoilBy NWS WFO

Current AWOS Conditions

** This page will automatically refresh every five minutes.
Sorted by: (Station ID)     Click on a column to sort it.

Add ID: Name: Ob Time   Wind [knots]   Rainfall
Temp (Hi / Lo) DewP Feels RH% Dir Speed Peak Gust
@ Time
Alti Vsby Hour Today
VTIVINTON06:35 AM 64(71/62) 61 65 90 90 44 @ 12:15 AM 30.11 10 0
TVKCenterville06:15 AM 64(68/64) 64 100 0 00 @ 06:00 PM 30.1 10 0
TNUNEWTON MUNI06:35 AM 64(72/64) 63 65 97 90 56 @ 04:35 AM 30.09 10 0
SLBStorm Lake06:35 AM 61(68/61) 59 61 93 80 46 @ 06:15 AM 30.1 10 0
SHLSHELDON06:35 AM 61(64/59) 61 100 0 07 @ 04:35 AM 30.08 10 0
SDASHENANDOAH MUNI06:35 AM 63(66/63) 63 64 100 50 34 @ 02:55 AM 30.05 10 0
RDKRED OAK06:35 AM 64(66/64) 64 66 100 30 44 @ 03:35 AM 30.06 10 0
PROPerry06:15 AM 64(66/61) 63 97 0 03 @ 04:35 AM 30.08 10 0
PEAPELLA06:35 AM 67(67/64) 62 68 84 90 44 @ 06:15 AM 30.09 10 0
OXVKnoxville06:35 AM 66(72/63) 63 67 90 100 46 @ 04:35 AM 30.07 10 0
ORCOrange City06:35 AM 64(72/64) 61 65 90 80 34 @ 03:55 AM 30.1 10 0
OOAOskaloosa06:15 AM 62(67/61) 61 63 96 70 46 @ 04:15 AM 30.09 10 0
OLZOELWEIN06:35 AM 61(64/61) 61 62 100 60 45 @ 12:35 AM 30.13 10 0
MXOMONTICELLO MUNI06:35 AM 63(64/63) 61 93 0 04 @ 06:15 AM 30.12 10 0
MUTMUSCATINE06:35 AM 66(72/66) 61 66 84 120 44 @ 04:15 AM 30.11 10 0
MPZMOUNT PLEASANT06:15 AM 63(64/61) 63 64 100 130 66 @ 04:15 AM 30.09 10 0
LRJLE MARS06:35 AM 59(64/59) 59 100 0 04 @ 02:55 AM 30.08 9 0
IKVANKENY06:35 AM 64(66/61) 61 90 0 04 @ 04:15 AM 30.1 10 0
IIBINDEPENDENCE06:35 AM 63(66/62) 59 87 0 04 @ 12:15 AM 30.12 10 0
IFAIowa Falls06:35 AM 64(70/64) 61 65 90 70 34 @ 05:55 AM 30.11 10 0 0.0001
ICLCLARINDA06:35 AM 66(66/63) 64 93 0 03 @ 01:35 AM 30.08 10 0
I75Osceola06:15 AM 64(69/63) 63 97 0 03 @ 12:15 AM 30.08 10 0
HPTHampton06:15 AM 59(64/59) 59 60 100 80 35 @ 12:35 AM 30.11 10 0
HNRHARLAN06:35 AM 61(63/59) 61 100 0 04 @ 03:15 AM 30.08 10 0
GGIGrinnell06:35 AM 64(69/63) 61 65 90 90 46 @ 04:35 AM 30.1 10 0
FXYForest City06:15 AM 64(68/63) 59 64 84 100 44 @ 12:15 AM 30.12 10 0
FSWFORT MADISON06:15 AM 66(68/64) 64 67 93 100 55 @ 06:15 AM 30.09 10 0
FODFORT DODGE05:56 AM 62(66/62) 61 63 96 90 45 @ 01:30 AM 30.1 10 0
FFLFAIRFIELD06:35 AM 64(66/63) 63 65 97 110 35 @ 03:55 AM 30.08 10 0
EOKKEOKUK MUNI06:35 AM 68(70/68) 66 70 93 110 79 @ 05:35 AM 30.08 10 0
EBSWebster City06:15 AM 63(66/61) 61 64 93 100 35 @ 12:15 AM 30.08 10 0
DNSDENISON06:35 AM 61(64/61) 61 62 100 40 44 @ 03:55 AM 30.09 9 0
DEHDECORAH06:35 AM 57(63/57) 57 100 0 00 @ 06:00 PM 30.12 10 0
CWICLINTON05:56 AM 62(67/62) 60 63 93 110 410 @ 02:00 AM 30.13 10 0
CSQCRESTON06:35 AM 64(66/64) 63 65 97 90 57 @ 01:15 AM 30.08 10 0
CNCCHARITON06:35 AM 66(72/66) 63 67 90 110 45 @ 01:15 AM 30.08 10 0
CKPCherokee06:35 AM 61(65/60) 61 100 0 03 @ 05:55 AM 30.08 10 0
CINCARROLL06:35 AM 59(63/57) 59 100 0 00 @ 06:00 PM 30.09 9 0
CCYCHARLES CITY06:35 AM 63(66/61) 57 63 81 90 45 @ 12:35 AM 30.13 10 0
CBFCOUNCIL BLUFFS06:35 AM 64(68/64) 63 65 97 100 35 @ 03:55 AM 30.06 10 0
CAVCLARION06:35 AM 64(66/64) 59 64 84 80 67 @ 01:35 AM 30.11 10 0
BNWBOONE MUNI06:35 AM 64(70/63) 61 65 90 100 44 @ 05:15 AM 30.09 8 0
AXAALGONA06:35 AM 64(70/64) 61 65 90 130 68 @ 12:15 AM 30.11 10 0
AWGWASHINGTON06:35 AM 64(68/63) 64 66 100 130 56 @ 02:15 AM 30.1 10 0
AIOATLANTIC06:35 AM 63(64/61) 61 93 0 05 @ 12:55 AM 30.07 10 0
ADUAUDUBON06:35 AM 61(63/57) 57 87 0 00 @ 06:00 PM 30.09 10 0